İstanbul Samandıra Army Air Base

LTBX · Estambul, Turquía

METAR pasados LTBX · İstanbul Samandıra Army Air Base

A continuación puedes ver los METAR de los últimos días. Selecciona un año para ver los METAR más antiguos, desde el año 2007 en adelante.

18 de abril de 2024

Hora Código Tiempo Temp. Visibilidad Cielo nuboso Viento METAR/SPECI
12:50
V
19 °C 10 km+ 8.000 ft 060° 060° 11 kt METAR LTFJ 180950Z 06011KT 9999 SCT035 BKN080 19/14 Q1003 RETSRA NOSIG RMK RWY24R 07011KT RWY06R 04015KT RWY24L 03012KT
12:38
V
20 °C 10 km+ 8.000 ft Var Var 7 - 17 kt METAR LTFJ 180938Z VRB07G17KT 9999 SCT035 BKN080 20/13 Q1003 RETSRA NOSIG
12:20
V
19 °C 10 km+ 8.000 ft 270° 270° 11 kt METAR LTFJ 180920Z 27011KT 9999 -TSRA FEW020CB SCT030 BKN080 19/13 Q1003 RESHRA BECMG TL0940 NSW
12:05
V
19 °C 10 km+ 8.000 ft 260° 260° 12 kt METAR LTFJ 180905Z 26012KT 230V290 9999 -TSRA FEW020CB SCT030 BKN080 19/13 Q1003 RESHRA BECMG TL0930 NSW
11:20
V
19 °C 10 km+ 8.000 ft 270° 270° 10 kt METAR LTFJ 180820Z 27010KT 240V300 9999 FEW025TCU SCT039 BKN080 19/13 Q1002 NOSIG
10:50
V
19 °C 10 km+ 8.000 ft 270° 270° 13 kt METAR LTFJ 180750Z 27013KT 9999 SCT045 BKN080 19/13 Q1002 NOSIG RMK RWY24R 28014KT RWY06R 27012KT RWY24L 27015KT
10:20
V
20 °C 10 km+ 8.000 ft 250° 250° 14 kt METAR LTFJ 180720Z 25014KT 9999 SCT045 BKN080 20/11 Q1002 NOSIG
09:50
V
19 °C 10 km+ 8.000 ft 240° 240° 15 kt METAR LTFJ 180650Z 24015KT 9999 SCT045 BKN080 19/11 Q1001 NOSIG RMK RWY24R 25018KT RWY06R 24016KT RWY24L 22014KT
09:20
V
20 °C 10 km+ 8.000 ft 240° 240° 14 kt METAR LTFJ 180620Z 24014KT 9999 SCT045 BKN080 20/10 Q1001 NOSIG
08:50
V
19 °C 10 km+ 10.000 ft 240° 240° 10 kt METAR LTFJ 180550Z 24010KT 9999 SCT035 BKN100 19/10 Q1000 NOSIG RMK RWY24R 25012KT RWY06R 23012KT 200V260 RWY24L 22008KT
08:20
V
19 °C 10 km+ 10.000 ft 240° 240° 9 kt METAR LTFJ 180520Z 24009KT 9999 SCT035 BKN100 19/10 Q1000 NOSIG
07:50
V
20 °C 10 km+ 10.000 ft 240° 240° 8 kt METAR LTFJ 180450Z 24008KT 9999 SCT035 BKN100 20/10 Q0999 NOSIG RMK RWY24R 24009KT 190V260 RWY06R 23007KT RWY24L 22006KT
07:20
V
20 °C 10 km+ 10.000 ft 240° 240° 10 kt METAR LTFJ 180420Z 24010KT 9999 SCT035 BKN100 20/08 Q1000 NOSIG
06:50
V
20 °C 10 km+ 10.000 ft 240° 240° 14 kt METAR LTFJ 180350Z 24014KT 9999 SCT035 BKN100 20/09 Q0999 NOSIG RMK RWY24R 26016KT RWY06R 24016KT RWY24L 24011KT
06:20
V
20 °C 10 km+ 10.000 ft 250° 250° 10 kt METAR LTFJ 180320Z 25010KT 9999 SCT035 BKN100 20/08 Q0999 NOSIG
05:50
V
20 °C 10 km+ 10.000 ft 240° 240° 8 kt METAR LTFJ 180250Z 24008KT 9999 SCT035 BKN100 20/08 Q0999 NOSIG RMK RWY24R 25008KT RWY06R 23006KT RWY24L 22006KT 200V260
05:20
V
21 °C 10 km+ 10.000 ft 250° 250° 8 kt METAR LTFJ 180220Z 25008KT 9999 SCT035 BKN100 21/07 Q0999 NOSIG
04:50
V
21 °C 10 km+ 10.000 ft 360° 360° 0 kt METAR LTFJ 180150Z 00000KT 9999 SCT035 BKN100 21/06 Q0998 NOSIG RMK RWY24R VRB02KT RWY06R VRB02KT RWY24L VRB02KT
04:20
V
21 °C 10 km+ 10.000 ft 300° 300° 2 kt METAR LTFJ 180120Z 30002KT 9999 SCT035 BKN100 21/07 Q0998 NOSIG
03:50
V
20 °C 10 km+ 10.000 ft 060° 060° 3 kt METAR LTFJ 180050Z 06003KT 9999 SCT035 BKN100 20/07 Q0998 NOSIG RMK RWY24R 04003KT 360V100 RWY06R 04004KT RWY24L 02003KT
03:20
V
20 °C 10 km+ 10.000 ft 060° 060° 6 kt METAR LTFJ 180020Z 06006KT 290V080 9999 SCT035 BKN100 20/07 Q0998 NOSIG
02:50
V
20 °C 10 km+ 10.000 ft Var Var 3 kt METAR LTFJ 172350Z VRB03KT 9999 FEW035 BKN100 20/06 Q0999 NOSIG RMK RWY24R VRB01KT RWY06R 07004KT 050V110 RWY24L 10003KT 050V140
02:20
V
19 °C 10 km+ 10.000 ft 060° 060° 7 kt METAR LTFJ 172320Z 06007KT 9999 FEW035 BKN100 19/07 Q0999 NOSIG
01:50
V
19 °C 10 km+ 10.000 ft 060° 060° 4 kt METAR LTFJ 172250Z 06004KT 9999 FEW035 BKN100 19/07 Q0999 NOSIG RMK RWY24R 05003KT RWY06R 05005KT RWY24L 04003KT 010V070
01:20
V
20 °C 10 km+ 10.000 ft 070° 070° 4 kt METAR LTFJ 172220Z 07004KT 9999 FEW035 BKN100 20/07 Q1000 NOSIG
00:50
V
20 °C 10 km+ - 060° 060° 3 kt METAR LTFJ 172150Z 06003KT 290V080 9999 FEW035 SCT100 20/06 Q1000 NOSIG RMK RWY24R VRB02KT RWY06R 07004KT 020V140 RWY24L 09004KT 050V120
00:20
V
21 °C 10 km+ - Var Var 3 kt METAR LTFJ 172120Z VRB03KT 9999 FEW035 SCT100 21/06 Q1000 NOSIG

17 de abril de 2024

Hora Código Tiempo Temp. Visibilidad Cielo nuboso Viento METAR/SPECI
23:50
V
21 °C 10 km+ - 360° 360° 0 kt METAR LTFJ 172050Z 00000KT CAVOK 21/06 Q1000 NOSIG RMK RWY24R VRB02KT RWY06R VRB01KT RWY24L VRB02KT
23:20
V
22 °C 10 km+ - Var Var 3 kt METAR LTFJ 172020Z VRB03KT CAVOK 22/05 Q1000 NOSIG
22:50
V
22 °C 10 km+ - 070° 070° 5 kt METAR LTFJ 171950Z 07005KT 280V080 CAVOK 22/05 Q1001 NOSIG RMK RWY24R 02004KT 340V080 RWY06R 04003KT 360V100 RWY24L 02003KT 320V080
22:20
V
22 °C 10 km+ - Var Var 1 kt METAR LTFJ 171920Z VRB01KT CAVOK 22/04 Q1000 NOSIG
21:50
V
22 °C 10 km+ - 310° 310° 4 kt METAR LTFJ 171850Z 31004KT CAVOK 22/04 Q1000 NOSIG RMK RWY24R VRB04KT RWY06R 31006KT RWY24L 32006KT
21:20
V
22 °C 10 km+ - 120° 120° 5 kt METAR LTFJ 171820Z 12005KT CAVOK 22/05 Q1001 NOSIG
20:50
V
23 °C 10 km+ - 120° 120° 6 kt METAR LTFJ 171750Z 12006KT CAVOK 23/04 Q1000 NOSIG RMK RWY24R 16004KT 140V260 RWY06R 10003KT 010V140 RWY24L 15004KT 110V190
20:20
V
23 °C 10 km+ - Var Var 3 kt METAR LTFJ 171720Z VRB03KT CAVOK 23/04 Q1000 NOSIG
19:50
V
24 °C 10 km+ - 240° 240° 4 kt METAR LTFJ 171650Z 24004KT 230V290 CAVOK 24/04 Q1001 NOSIG RMK RWY24R 25005KT RWY06R 22003KT RWY24L 21004KT 180V240
19:20
V
24 °C 10 km+ - 280° 280° 3 kt METAR LTFJ 171620Z 28003KT CAVOK 24/04 Q1000 NOSIG
18:50
V
24 °C 10 km+ - 250° 250° 5 kt METAR LTFJ 171550Z 25005KT CAVOK 24/05 Q1001 NOSIG RMK RWY24R 25004KT RWY06R 25004KT 220V280 RWY24L 23004KT 180V270
18:20
V
25 °C 10 km+ - 240° 240° 7 kt METAR LTFJ 171520Z 24007KT 120V260 CAVOK 25/04 Q1001 NOSIG
17:50
V
25 °C 10 km+ - 240° 240° 7 kt METAR LTFJ 171450Z 24007KT 140V260 CAVOK 25/04 Q1001 NOSIG RMK RWY24R 23008KT RWY06R 21008KT RWY24L 20005KT
17:20
V
26 °C 10 km+ - 270° 270° 10 kt METAR LTFJ 171420Z 27010KT CAVOK 26/04 Q1001 NOSIG
16:50
V
26 °C 10 km+ - 270° 270° 9 kt METAR LTFJ 171350Z 27009KT CAVOK 26/05 Q1001 NOSIG RMK RWY24R 28011KT RWY06R 26011KT RWY24L 26012KT
16:20
V
27 °C 10 km+ - 260° 260° 6 kt METAR LTFJ 171320Z 26006KT 230V290 CAVOK 27/05 Q1001 NOSIG
15:50
V
27 °C 10 km+ - 230° 230° 5 kt METAR LTFJ 171250Z 23005KT 100V260 CAVOK 27/03 Q1001 NOSIG RMK RWY24R 19006KT 150V230 RWY06R 17005KT RWY24L 18004KT 140V210
15:20
V
27 °C 10 km+ - 110° 110° 8 kt METAR LTFJ 171220Z 11008KT 100V260 CAVOK 27/01 Q1001 NOSIG
14:50
V
28 °C 10 km+ - 220° 220° 7 kt METAR LTFJ 171150Z 22007KT 100V260 CAVOK 28/03 Q1002 NOSIG RMK RWY24R 18009KT RWY06R 18009KT 140V220 RWY24L 18007KT
14:20
V
27 °C 10 km+ - 120° 120° 7 kt METAR LTFJ 171120Z 12007KT 100V260 CAVOK 27/02 Q1002 NOSIG
13:50
V
27 °C 10 km+ - 120° 120° 12 kt METAR LTFJ 171050Z 12012KT 100V260 CAVOK 27/02 Q1003 NOSIG RMK RWY24R 17011KT 140V200 RWY06R 16012KT RWY24L 16009KT 130V210
13:20
V
27 °C 10 km+ - 170° 170° 10 kt METAR LTFJ 171020Z 17010KT 100V260 CAVOK 27/03 Q1003 NOSIG
12:50
V
26 °C 10 km+ 18.000 ft 110° 110° 10 kt METAR LTFJ 170950Z 11010KT 100V180 9999 FEW035 BKN180 26/04 Q1004 NOSIG RMK RWY24R 18008KT 140V200 RWY06R 15009KT RWY24L 16008KT 130V190
12:20
V
25 °C 10 km+ 18.000 ft 180° 180° 7 kt METAR LTFJ 170920Z 18007KT 100V260 9999 FEW035 BKN180 25/04 Q1004 NOSIG
11:50
V
24 °C 10 km+ 10.000 ft 120° 120° 6 kt METAR LTFJ 170850Z 12006KT 100V260 9999 SCT035 BKN100 24/06 Q1004 NOSIG RMK RWY24R 17005KT 110V230 RWY06R 15008KT 110V180 RWY24L 15008KT
11:20
V
23 °C 10 km+ 10.000 ft Var Var 4 kt METAR LTFJ 170820Z VRB04KT 9999 SCT035 BKN100 23/07 Q1005 NOSIG
10:50
V
24 °C 10 km+ 10.000 ft 210° 210° 7 kt METAR LTFJ 170750Z 21007KT 100V260 9999 SCT035 BKN100 24/07 Q1005 NOSIG RMK RWY24R 18007KT 140V240 RWY06R 18008KT 150V220 RWY24L 17010KT 140V210
10:20
V
22 °C 10 km+ 10.000 ft 240° 240° 5 kt METAR LTFJ 170720Z 24005KT 100V260 9999 SCT035 BKN100 22/08 Q1005 NOSIG
09:50
V
20 °C 10 km+ 9.000 ft 160° 160° 5 kt METAR LTFJ 170650Z 16005KT 100V260 9999 -SHRA SCT035 BKN090 20/09 Q1005 NOSIG RMK RWY24R 16003KT 100V190 RWY06R VRB01KT RWY24L 17004KT 100V220
09:20
V
20 °C 10 km+ 9.000 ft Var Var 1 kt METAR LTFJ 170620Z VRB01KT 9999 -SHRA SCT035 BKN090 20/12 Q1006 NOSIG
08:50
V
19 °C 10 km+ 9.000 ft 240° 240° 5 kt METAR LTFJ 170550Z 24005KT 9999 -SHRA SCT035 BKN090 19/10 Q1006 NOSIG RMK RWY24R 21004KT 180V240 RWY06R 21005KT 120V280 RWY24L VRB02KT
08:35
V
19 °C 10 km+ 9.000 ft 230° 230° 6 kt METAR LTFJ 170535Z 23006KT 9999 -SHRA SCT035 BKN090 19/11 Q1006 NOSIG
08:20
V
19 °C 10 km+ 10.000 ft 250° 250° 8 kt METAR LTFJ 170520Z 25008KT 9999 SCT035 BKN100 19/09 Q1006 NOSIG
07:50
V
20 °C 10 km+ 10.000 ft 250° 250° 7 kt METAR LTFJ 170450Z 25007KT 140V260 9999 SCT035 BKN100 20/08 Q1006 NOSIG RMK RWY24R 21007KT RWY06R 18005KT 140V200 RWY24L 20007KT
07:20
V
20 °C 10 km+ 10.000 ft 230° 230° 5 kt METAR LTFJ 170420Z 23005KT 100V260 9999 SCT035 BKN100 20/08 Q1007 NOSIG
06:50
V
20 °C 10 km+ - 250° 250° 6 kt METAR LTFJ 170350Z 25006KT 150V260 CAVOK 20/08 Q1007 NOSIG
06:20
V
20 °C 10 km+ - 260° 260° 6 kt METAR LTFJ 170320Z 26006KT CAVOK 20/08 Q1007 NOSIG
05:50
V
20 °C 10 km+ - 240° 240° 4 kt METAR LTFJ 170250Z 24004KT 100V260 CAVOK 20/07 Q1006 NOSIG RMK RWY24R 22004KT RWY06R 20004KT 170V230 RWY24L 22005KT
05:20
V
20 °C 10 km+ - 240° 240° 4 kt METAR LTFJ 170220Z 24004KT CAVOK 20/07 Q1006 NOSIG
04:50
V
21 °C 10 km+ - 230° 230° 8 kt METAR LTFJ 170150Z 23008KT CAVOK 21/06 Q1006 NOSIG RMK RWY24R 23006KT 200V260 RWY06R 22006KT RWY24L 21006KT
04:20
V
21 °C 10 km+ - 260° 260° 5 kt METAR LTFJ 170120Z 26005KT 230V300 CAVOK 21/06 Q1006 NOSIG
03:50
V
21 °C 10 km+ - 240° 240° 6 kt METAR LTFJ 170050Z 24006KT CAVOK 21/06 Q1007 NOSIG RMK RWY24R 25006KT RWY06R 25006KT RWY24L 24006KT
03:20
V
22 °C 10 km+ - 270° 270° 12 kt METAR LTFJ 170020Z 27012KT CAVOK 22/05 Q1007 NOSIG
02:50
V
21 °C 10 km+ - 300° 300° 5 kt METAR LTFJ 162350Z 30005KT CAVOK 21/06 Q1006 NOSIG RMK RWY24R 31006KT RWY06R 31007KT RWY24L VRB02KT
02:20
V
20 °C 10 km+ - 260° 260° 6 kt METAR LTFJ 162320Z 26006KT CAVOK 20/07 Q1007 NOSIG
01:50
V
22 °C 10 km+ - 260° 260° 9 kt METAR LTFJ 162250Z 26009KT CAVOK 22/06 Q1007 NOSIG RMK RWY24R 28010KT RWY06R 27009KT RWY24L 24006KT
01:20
V
21 °C 10 km+ - 240° 240° 6 kt METAR LTFJ 162220Z 24006KT CAVOK 21/06 Q1007 NOSIG
00:50
V
21 °C 10 km+ - 250° 250° 7 kt METAR LTFJ 162150Z 25007KT CAVOK 21/06 Q1007 NOSIG RMK RWY24R 26009KT RWY06R 25007KT RWY24L 24006KT
00:20
V
22 °C 10 km+ - 260° 260° 9 kt METAR LTFJ 162120Z 26009KT CAVOK 22/06 Q1007 NOSIG

16 de abril de 2024

Hora Código Tiempo Temp. Visibilidad Cielo nuboso Viento METAR/SPECI
23:50
V
22 °C 10 km+ - 240° 240° 7 kt METAR LTFJ 162050Z 24007KT CAVOK 22/07 Q1007 NOSIG RMK RWY24R 25007KT RWY06R 24007KT RWY24L 24006KT
23:20
V
22 °C 10 km+ - 240° 240° 8 kt METAR LTFJ 162020Z 24008KT CAVOK 22/08 Q1008 NOSIG
22:50
V
22 °C 10 km+ - 250° 250° 6 kt METAR LTFJ 161950Z 25006KT CAVOK 22/08 Q1008 NOSIG RMK RWY24R 22007KT 170V240 RWY06R 20008KT RWY24L 20006KT
22:20
V
22 °C 10 km+ - 240° 240° 6 kt METAR LTFJ 161920Z 24006KT CAVOK 22/08 Q1008 NOSIG
21:50
V
23 °C 10 km+ - 220° 220° 6 kt METAR LTFJ 161850Z 22006KT 100V260 CAVOK 23/08 Q1008 NOSIG RMK RWY24R 21009KT RWY06R 19008KT RWY24L 21010KT 180V240
21:20
V
22 °C 10 km+ - 110° 110° 6 kt METAR LTFJ 161820Z 11006KT CAVOK 22/09 Q1008 NOSIG
20:50
V
23 °C 10 km+ - 130° 130° 6 kt METAR LTFJ 161750Z 13006KT 100V260 CAVOK 23/09 Q1009 NOSIG RMK RWY24R 18005KT 160V220 RWY06R 15006KT RWY24L 20006KT
20:20
V
23 °C 10 km+ - 230° 230° 7 kt METAR LTFJ 161720Z 23007KT CAVOK 23/08 Q1009 NOSIG
19:50
V
23 °C 10 km+ - 230° 230° 5 kt METAR LTFJ 161650Z 23005KT CAVOK 23/09 Q1008 NOSIG RMK RWY24R 18005KT RWY06R 17004KT 140V210 RWY24L 19004KT 150V240
19:20
V
23 °C 10 km+ - 250° 250° 7 kt METAR LTFJ 161620Z 25007KT CAVOK 23/09 Q1008 NOSIG
18:50
V
25 °C 10 km+ - 240° 240° 8 kt METAR LTFJ 161550Z 24008KT CAVOK 25/08 Q1008 NOSIG RMK RWY24R 25008KT RWY06R 24008KT RWY24L 23008KT
18:20
V
26 °C 10 km+ - 240° 240° 8 kt METAR LTFJ 161520Z 24008KT CAVOK 26/07 Q1008 NOSIG
17:50
V
27 °C 10 km+ - 250° 250° 5 kt METAR LTFJ 161450Z 25005KT CAVOK 27/07 Q1008 NOSIG RMK RWY24R 25008KT 220V280 RWY06R 24006KT 200V300 RWY24L 24007KT 210V270
17:20
V
27 °C 10 km+ - 240° 240° 7 kt METAR LTFJ 161420Z 24007KT 100V260 CAVOK 27/07 Q1008 NOSIG
16:50
V
27 °C 10 km+ - 240° 240° 7 kt METAR LTFJ 161350Z 24007KT 160V260 CAVOK 27/05 Q1008 NOSIG
16:20
V
28 °C 10 km+ - 250° 250° 12 kt METAR LTFJ 161320Z 25012KT CAVOK 28/06 Q1008 NOSIG
15:50
V
28 °C 10 km+ - 250° 250° 14 kt METAR LTFJ 161250Z 25014KT CAVOK 28/06 Q1008 NOSIG RMK RWY24R 27015KT RWY06R 25014KT RWY24L 26015KT
15:20
V
28 °C 10 km+ - 260° 260° 16 kt METAR LTFJ 161220Z 26016KT CAVOK 28/05 Q1009 NOSIG
14:50
V
28 °C 10 km+ - 260° 260° 14 kt METAR LTFJ 161150Z 26014KT CAVOK 28/06 Q1009 NOSIG RMK RWY24R 27015KT RWY06R 25014KT RWY24L 25013KT 210V270
14:20
V
28 °C 10 km+ - 260° 260° 15 kt METAR LTFJ 161120Z 26015KT CAVOK 28/07 Q1009 NOSIG
13:50
V
28 °C 10 km+ - 260° 260° 13 kt METAR LTFJ 161050Z 26013KT CAVOK 28/08 Q1010 NOSIG RMK RWY24R 28014KT RWY06R 26013KT RWY24L 25014KT
13:20
V
27 °C 10 km+ - 260° 260° 11 kt METAR LTFJ 161020Z 26011KT 230V290 CAVOK 27/07 Q1010 NOSIG
12:50
V
27 °C 10 km+ - 250° 250° 10 kt METAR LTFJ 160950Z 25010KT CAVOK 27/07 Q1011 NOSIG RMK RWY24R 25011KT RWY06R 24011KT 220V280 RWY24L 24012KT
12:20
V
27 °C 10 km+ - 250° 250° 10 kt METAR LTFJ 160920Z 25010KT CAVOK 27/06 Q1011 NOSIG
11:50
V
27 °C 10 km+ - 260° 260° 8 kt METAR LTFJ 160850Z 26008KT 230V300 CAVOK 27/07 Q1011 NOSIG RMK RWY24R 26008KT RWY06R 24006KT 200V290 RWY24L 24008KT 210V270
11:20
V
26 °C 10 km+ - 230° 230° 7 kt METAR LTFJ 160820Z 23007KT CAVOK 26/06 Q1011 NOSIG
10:50
V
26 °C 10 km+ - 240° 240° 7 kt METAR LTFJ 160750Z 24007KT CAVOK 26/07 Q1011 NOSIG RMK RWY24R 23007KT RWY06R 21006KT RWY24L 22007KT 190V250
10:20
V
25 °C 10 km+ - 230° 230° 6 kt METAR LTFJ 160720Z 23006KT 100V260 CAVOK 25/07 Q1011 NOSIG
09:50
V
24 °C 10 km+ - 240° 240° 7 kt METAR LTFJ 160650Z 24007KT 120V260 CAVOK 24/07 Q1011 NOSIG RMK RWY24R 21008KT RWY06R 20007KT RWY24L 22008KT
09:20
V
23 °C 10 km+ - 240° 240° 6 kt METAR LTFJ 160620Z 24006KT 200V260 CAVOK 23/07 Q1011 NOSIG
08:50
V
23 °C 10 km+ - 240° 240° 6 kt METAR LTFJ 160550Z 24006KT CAVOK 23/07 Q1011 NOSIG RMK RWY24R 23008KT RWY06R 21006KT RWY24L 22005KT
Cambiar esta información